sensor_id;sensor_type;location;lat;lon;timestamp;P1;durP1;ratioP1;P2;durP2;ratioP2
66179;SDS011;52986;44.028;20.466;2022-11-11T00:00:26;37.90;;;17.58;;
66179;SDS011;52986;44.028;20.466;2022-11-11T00:02:53;38.58;;;17.67;;
66179;SDS011;52986;44.028;20.466;2022-11-11T00:05:19;39.40;;;18.23;;
66179;SDS011;52986;44.028;20.466;2022-11-11T00:07:45;38.20;;;17.40;;
66179;SDS011;52986;44.028;20.466;2022-11-11T00:10:11;39.40;;;17.95;;
66179;SDS011;52986;44.028;20.466;2022-11-11T00:12:37;39.15;;;17.67;;
66179;SDS011;52986;44.028;20.466;2022-11-11T00:15:03;36.90;;;16.95;;
66179;SDS011;52986;44.028;20.466;2022-11-11T00:17:28;37.42;;;17.85;;
66179;SDS011;52986;44.028;20.466;2022-11-11T00:20:12;36.58;;;17.05;;
66179;SDS011;52986;44.028;20.466;2022-11-11T00:22:56;43.25;;;18.98;;
66179;SDS011;52986;44.028;20.466;2022-11-11T00:25:40;41.92;;;19.63;;
66179;SDS011;52986;44.028;20.466;2022-11-11T00:28:05;38.25;;;17.15;;
66179;SDS011;52986;44.028;20.466;2022-11-11T00:30:31;35.70;;;16.73;;
66179;SDS011;52986;44.028;20.466;2022-11-11T00:32:56;36.58;;;16.67;;
66179;SDS011;52986;44.028;20.466;2022-11-11T00:35:22;35.20;;;16.48;;
66179;SDS011;52986;44.028;20.466;2022-11-11T00:40:32;37.35;;;16.50;;
66179;SDS011;52986;44.028;20.466;2022-11-11T00:42:58;38.00;;;17.33;;
66179;SDS011;52986;44.028;20.466;2022-11-11T00:45:23;35.47;;;17.17;;
66179;SDS011;52986;44.028;20.466;2022-11-11T00:47:49;35.80;;;16.20;;
66179;SDS011;52986;44.028;20.466;2022-11-11T00:50:32;31.85;;;15.65;;
66179;SDS011;52986;44.028;20.466;2022-11-11T00:53:17;33.40;;;15.82;;
66179;SDS011;52986;44.028;20.466;2022-11-11T00:55:45;31.90;;;14.80;;
66179;SDS011;52986;44.028;20.466;2022-11-11T00:58:10;33.38;;;15.45;;
66179;SDS011;52986;44.028;20.466;2022-11-11T01:00:35;32.90;;;15.30;;
66179;SDS011;52986;44.028;20.466;2022-11-11T01:03:01;30.25;;;15.02;;
66179;SDS011;52986;44.028;20.466;2022-11-11T01:05:26;33.53;;;15.40;;
66179;SDS011;52986;44.028;20.466;2022-11-11T01:07:52;29.63;;;14.13;;
66179;SDS011;52986;44.028;20.466;2022-11-11T01:10:18;33.47;;;15.18;;
66179;SDS011;52986;44.028;20.466;2022-11-11T01:13:05;30.27;;;14.88;;
66179;SDS011;52986;44.028;20.466;2022-11-11T01:15:38;31.38;;;14.15;;
66179;SDS011;52986;44.028;20.466;2022-11-11T01:18:08;35.40;;;15.50;;
66179;SDS011;52986;44.028;20.466;2022-11-11T01:20:35;31.98;;;14.57;;
66179;SDS011;52986;44.028;20.466;2022-11-11T01:23:02;32.70;;;14.38;;
66179;SDS011;52986;44.028;20.466;2022-11-11T01:25:29;30.90;;;14.32;;
66179;SDS011;52986;44.028;20.466;2022-11-11T01:27:57;28.75;;;13.43;;
66179;SDS011;52986;44.028;20.466;2022-11-11T01:30:23;29.17;;;13.52;;
66179;SDS011;52986;44.028;20.466;2022-11-11T01:32:48;29.38;;;12.80;;
66179;SDS011;52986;44.028;20.466;2022-11-11T01:35:13;28.05;;;13.38;;
66179;SDS011;52986;44.028;20.466;2022-11-11T01:37:39;28.20;;;12.63;;
66179;SDS011;52986;44.028;20.466;2022-11-11T01:40:04;28.10;;;12.40;;
66179;SDS011;52986;44.028;20.466;2022-11-11T01:42:30;27.83;;;13.05;;
66179;SDS011;52986;44.028;20.466;2022-11-11T01:44:55;28.48;;;12.38;;
66179;SDS011;52986;44.028;20.466;2022-11-11T01:47:21;26.05;;;12.00;;
66179;SDS011;52986;44.028;20.466;2022-11-11T01:49:56;27.30;;;12.15;;
66179;SDS011;52986;44.028;20.466;2022-11-11T01:52:35;28.52;;;11.55;;
66179;SDS011;52986;44.028;20.466;2022-11-11T01:55:14;24.70;;;11.35;;
66179;SDS011;52986;44.028;20.466;2022-11-11T02:00:33;27.55;;;11.82;;
66179;SDS011;52986;44.028;20.466;2022-11-11T02:03:00;27.60;;;12.52;;
66179;SDS011;52986;44.028;20.466;2022-11-11T02:05:29;28.23;;;12.43;;
66179;SDS011;52986;44.028;20.466;2022-11-11T02:08:17;28.15;;;13.38;;
66179;SDS011;52986;44.028;20.466;2022-11-11T02:10:58;27.30;;;12.18;;
66179;SDS011;52986;44.028;20.466;2022-11-11T02:13:28;29.00;;;12.63;;
66179;SDS011;52986;44.028;20.466;2022-11-11T02:16:13;27.90;;;12.43;;
66179;SDS011;52986;44.028;20.466;2022-11-11T02:18:38;27.77;;;12.43;;
66179;SDS011;52986;44.028;20.466;2022-11-11T02:21:05;28.55;;;12.35;;
66179;SDS011;52986;44.028;20.466;2022-11-11T02:28:28;33.55;;;15.40;;
66179;SDS011;52986;44.028;20.466;2022-11-11T02:30:57;30.95;;;13.98;;
66179;SDS011;52986;44.028;20.466;2022-11-11T02:33:23;29.20;;;13.35;;
66179;SDS011;52986;44.028;20.466;2022-11-11T02:35:49;26.73;;;12.38;;
66179;SDS011;52986;44.028;20.466;2022-11-11T02:38:23;30.02;;;13.68;;
66179;SDS011;52986;44.028;20.466;2022-11-11T02:40:49;28.73;;;13.15;;
66179;SDS011;52986;44.028;20.466;2022-11-11T02:43:34;32.72;;;13.68;;
66179;SDS011;52986;44.028;20.466;2022-11-11T02:46:00;27.75;;;12.75;;
66179;SDS011;52986;44.028;20.466;2022-11-11T02:48:27;29.05;;;13.10;;
66179;SDS011;52986;44.028;20.466;2022-11-11T02:50:53;28.67;;;13.23;;
66179;SDS011;52986;44.028;20.466;2022-11-11T02:53:19;29.27;;;12.95;;
66179;SDS011;52986;44.028;20.466;2022-11-11T02:55:45;29.00;;;12.75;;
66179;SDS011;52986;44.028;20.466;2022-11-11T02:58:11;29.02;;;12.63;;
66179;SDS011;52986;44.028;20.466;2022-11-11T03:00:37;27.30;;;12.27;;
66179;SDS011;52986;44.028;20.466;2022-11-11T03:03:03;28.35;;;13.18;;
66179;SDS011;52986;44.028;20.466;2022-11-11T03:05:28;29.13;;;12.30;;
66179;SDS011;52986;44.028;20.466;2022-11-11T03:07:53;27.88;;;12.32;;
66179;SDS011;52986;44.028;20.466;2022-11-11T03:10:19;27.25;;;11.48;;
66179;SDS011;52986;44.028;20.466;2022-11-11T03:12:44;26.50;;;12.23;;
66179;SDS011;52986;44.028;20.466;2022-11-11T03:15:10;27.13;;;11.80;;
66179;SDS011;52986;44.028;20.466;2022-11-11T03:17:35;24.42;;;11.60;;
66179;SDS011;52986;44.028;20.466;2022-11-11T03:20:16;23.27;;;10.82;;
66179;SDS011;52986;44.028;20.466;2022-11-11T03:25:31;25.05;;;11.38;;
66179;SDS011;52986;44.028;20.466;2022-11-11T03:28:04;27.42;;;11.52;;
66179;SDS011;52986;44.028;20.466;2022-11-11T03:30:40;26.58;;;11.80;;
66179;SDS011;52986;44.028;20.466;2022-11-11T03:33:09;27.00;;;11.75;;
66179;SDS011;52986;44.028;20.466;2022-11-11T03:35:35;25.42;;;11.25;;
66179;SDS011;52986;44.028;20.466;2022-11-11T03:38:01;28.45;;;11.73;;
66179;SDS011;52986;44.028;20.466;2022-11-11T03:40:43;29.10;;;11.95;;
66179;SDS011;52986;44.028;20.466;2022-11-11T03:43:11;26.38;;;11.48;;
66179;SDS011;52986;44.028;20.466;2022-11-11T03:45:37;25.85;;;11.25;;
66179;SDS011;52986;44.028;20.466;2022-11-11T03:48:03;26.65;;;11.73;;
66179;SDS011;52986;44.028;20.466;2022-11-11T03:50:29;24.42;;;10.50;;
66179;SDS011;52986;44.028;20.466;2022-11-11T03:52:55;26.15;;;11.38;;
66179;SDS011;52986;44.028;20.466;2022-11-11T03:55:20;24.47;;;10.57;;
66179;SDS011;52986;44.028;20.466;2022-11-11T03:57:46;24.95;;;10.80;;
66179;SDS011;52986;44.028;20.466;2022-11-11T04:00:12;28.55;;;11.88;;
66179;SDS011;52986;44.028;20.466;2022-11-11T04:02:39;26.00;;;11.52;;
66179;SDS011;52986;44.028;20.466;2022-11-11T04:05:23;25.73;;;11.50;;
66179;SDS011;52986;44.028;20.466;2022-11-11T04:08:11;25.95;;;11.10;;
66179;SDS011;52986;44.028;20.466;2022-11-11T04:10:59;26.60;;;11.63;;
66179;SDS011;52986;44.028;20.466;2022-11-11T04:13:29;24.52;;;11.25;;
66179;SDS011;52986;44.028;20.466;2022-11-11T04:16:14;23.33;;;10.68;;
66179;SDS011;52986;44.028;20.466;2022-11-11T04:18:39;24.05;;;10.68;;
66179;SDS011;52986;44.028;20.466;2022-11-11T04:21:23;26.10;;;11.55;;
66179;SDS011;52986;44.028;20.466;2022-11-11T04:24:08;25.70;;;11.35;;
66179;SDS011;52986;44.028;20.466;2022-11-11T04:26:53;27.38;;;11.55;;
66179;SDS011;52986;44.028;20.466;2022-11-11T04:29:20;26.92;;;11.65;;
66179;SDS011;52986;44.028;20.466;2022-11-11T04:32:01;26.42;;;11.40;;
66179;SDS011;52986;44.028;20.466;2022-11-11T04:34:56;25.67;;;10.80;;
66179;SDS011;52986;44.028;20.466;2022-11-11T04:37:24;24.50;;;10.95;;
66179;SDS011;52986;44.028;20.466;2022-11-11T04:39:50;25.63;;;10.93;;
66179;SDS011;52986;44.028;20.466;2022-11-11T04:42:35;26.92;;;11.30;;
66179;SDS011;52986;44.028;20.466;2022-11-11T04:45:01;27.38;;;11.55;;
66179;SDS011;52986;44.028;20.466;2022-11-11T04:50:17;25.02;;;10.80;;
66179;SDS011;52986;44.028;20.466;2022-11-11T04:52:42;27.73;;;10.90;;
66179;SDS011;52986;44.028;20.466;2022-11-11T04:55:08;24.85;;;12.05;;
66179;SDS011;52986;44.028;20.466;2022-11-11T04:57:52;24.73;;;10.45;;
66179;SDS011;52986;44.028;20.466;2022-11-11T05:00:17;26.47;;;11.63;;
66179;SDS011;52986;44.028;20.466;2022-11-11T05:02:43;24.08;;;10.82;;
66179;SDS011;52986;44.028;20.466;2022-11-11T05:05:27;25.33;;;11.20;;
66179;SDS011;52986;44.028;20.466;2022-11-11T05:08:14;23.95;;;10.90;;
66179;SDS011;52986;44.028;20.466;2022-11-11T05:10:58;24.60;;;10.85;;
66179;SDS011;52986;44.028;20.466;2022-11-11T05:13:24;28.75;;;11.55;;
66179;SDS011;52986;44.028;20.466;2022-11-11T05:16:19;27.27;;;11.10;;
66179;SDS011;52986;44.028;20.466;2022-11-11T05:19:07;26.77;;;10.80;;
66179;SDS011;52986;44.028;20.466;2022-11-11T05:21:53;26.67;;;11.13;;
66179;SDS011;52986;44.028;20.466;2022-11-11T05:24:20;26.08;;;10.82;;
66179;SDS011;52986;44.028;20.466;2022-11-11T05:27:04;24.17;;;10.35;;
66179;SDS011;52986;44.028;20.466;2022-11-11T05:29:30;24.40;;;10.20;;
66179;SDS011;52986;44.028;20.466;2022-11-11T05:31:55;25.42;;;10.23;;
66179;SDS011;52986;44.028;20.466;2022-11-11T05:34:20;26.02;;;11.15;;
66179;SDS011;52986;44.028;20.466;2022-11-11T05:36:46;24.70;;;11.10;;
66179;SDS011;52986;44.028;20.466;2022-11-11T05:39:11;27.35;;;10.70;;
66179;SDS011;52986;44.028;20.466;2022-11-11T05:41:36;26.10;;;10.93;;
66179;SDS011;52986;44.028;20.466;2022-11-11T05:44:02;26.13;;;11.43;;
66179;SDS011;52986;44.028;20.466;2022-11-11T05:46:27;26.73;;;11.38;;
66179;SDS011;52986;44.028;20.466;2022-11-11T05:48:52;24.70;;;10.95;;
66179;SDS011;52986;44.028;20.466;2022-11-11T05:51:36;27.77;;;11.70;;
66179;SDS011;52986;44.028;20.466;2022-11-11T05:54:02;24.80;;;11.68;;
66179;SDS011;52986;44.028;20.466;2022-11-11T05:56:27;25.48;;;11.77;;
66179;SDS011;52986;44.028;20.466;2022-11-11T05:58:53;27.35;;;12.25;;
66179;SDS011;52986;44.028;20.466;2022-11-11T06:01:18;28.50;;;12.63;;
66179;SDS011;52986;44.028;20.466;2022-11-11T06:03:44;33.47;;;13.63;;
66179;SDS011;52986;44.028;20.466;2022-11-11T06:06:09;30.50;;;14.27;;
66179;SDS011;52986;44.028;20.466;2022-11-11T06:08:35;35.83;;;16.65;;
66179;SDS011;52986;44.028;20.466;2022-11-11T06:11:01;39.22;;;18.40;;
66179;SDS011;52986;44.028;20.466;2022-11-11T06:13:26;38.72;;;18.13;;
66179;SDS011;52986;44.028;20.466;2022-11-11T06:15:51;35.23;;;16.97;;
66179;SDS011;52986;44.028;20.466;2022-11-11T06:18:17;29.47;;;14.33;;
66179;SDS011;52986;44.028;20.466;2022-11-11T06:20:42;30.15;;;14.30;;
66179;SDS011;52986;44.028;20.466;2022-11-11T06:23:07;34.75;;;17.67;;
66179;SDS011;52986;44.028;20.466;2022-11-11T06:25:33;44.25;;;24.55;;
66179;SDS011;52986;44.028;20.466;2022-11-11T06:28:17;35.40;;;16.30;;
66179;SDS011;52986;44.028;20.466;2022-11-11T06:30:43;29.55;;;12.88;;
66179;SDS011;52986;44.028;20.466;2022-11-11T06:33:09;25.10;;;11.82;;
66179;SDS011;52986;44.028;20.466;2022-11-11T06:35:35;26.77;;;11.57;;
66179;SDS011;52986;44.028;20.466;2022-11-11T06:38:01;25.00;;;10.50;;
66179;SDS011;52986;44.028;20.466;2022-11-11T06:40:28;23.85;;;11.07;;
66179;SDS011;52986;44.028;20.466;2022-11-11T06:42:55;25.70;;;11.60;;
66179;SDS011;52986;44.028;20.466;2022-11-11T06:45:21;19.33;;;8.90;;
66179;SDS011;52986;44.028;20.466;2022-11-11T06:47:46;23.70;;;9.55;;
66179;SDS011;52986;44.028;20.466;2022-11-11T06:50:12;21.50;;;9.03;;
66179;SDS011;52986;44.028;20.466;2022-11-11T06:52:37;22.63;;;10.32;;
66179;SDS011;52986;44.028;20.466;2022-11-11T06:55:02;24.20;;;10.20;;
66179;SDS011;52986;44.028;20.466;2022-11-11T06:57:28;24.40;;;10.80;;
66179;SDS011;52986;44.028;20.466;2022-11-11T06:59:53;27.92;;;11.20;;
66179;SDS011;52986;44.028;20.466;2022-11-11T07:02:19;26.70;;;11.82;;
66179;SDS011;52986;44.028;20.466;2022-11-11T07:04:44;22.27;;;11.07;;
66179;SDS011;52986;44.028;20.466;2022-11-11T07:07:09;25.03;;;11.43;;
66179;SDS011;52986;44.028;20.466;2022-11-11T07:09:35;22.17;;;10.70;;
66179;SDS011;52986;44.028;20.466;2022-11-11T07:12:00;23.77;;;10.43;;
66179;SDS011;52986;44.028;20.466;2022-11-11T07:14:26;24.38;;;9.65;;
66179;SDS011;52986;44.028;20.466;2022-11-11T07:16:51;30.67;;;11.63;;
66179;SDS011;52986;44.028;20.466;2022-11-11T07:19:16;22.00;;;10.30;;
66179;SDS011;52986;44.028;20.466;2022-11-11T07:21:42;24.33;;;11.73;;
66179;SDS011;52986;44.028;20.466;2022-11-11T07:24:07;29.73;;;13.82;;
66179;SDS011;52986;44.028;20.466;2022-11-11T07:26:33;32.45;;;14.63;;
66179;SDS011;52986;44.028;20.466;2022-11-11T07:28:58;28.83;;;13.73;;
66179;SDS011;52986;44.028;20.466;2022-11-11T07:31:23;24.88;;;11.98;;
66179;SDS011;52986;44.028;20.466;2022-11-11T07:33:49;26.92;;;12.10;;
66179;SDS011;52986;44.028;20.466;2022-11-11T07:36:14;22.42;;;10.82;;
66179;SDS011;52986;44.028;20.466;2022-11-11T07:38:39;26.17;;;11.48;;
66179;SDS011;52986;44.028;20.466;2022-11-11T07:41:05;27.83;;;10.90;;
66179;SDS011;52986;44.028;20.466;2022-11-11T07:43:30;23.08;;;10.57;;
66179;SDS011;52986;44.028;20.466;2022-11-11T07:45:55;26.33;;;11.45;;
66179;SDS011;52986;44.028;20.466;2022-11-11T07:48:21;26.10;;;11.50;;
66179;SDS011;52986;44.028;20.466;2022-11-11T07:50:46;25.00;;;11.10;;
66179;SDS011;52986;44.028;20.466;2022-11-11T07:53:13;23.92;;;11.55;;
66179;SDS011;52986;44.028;20.466;2022-11-11T07:55:38;24.17;;;11.48;;
66179;SDS011;52986;44.028;20.466;2022-11-11T07:58:03;26.63;;;12.25;;
66179;SDS011;52986;44.028;20.466;2022-11-11T08:00:30;27.40;;;12.93;;
66179;SDS011;52986;44.028;20.466;2022-11-11T08:02:56;29.38;;;12.40;;
66179;SDS011;52986;44.028;20.466;2022-11-11T08:05:21;30.38;;;14.00;;
66179;SDS011;52986;44.028;20.466;2022-11-11T08:07:46;29.00;;;13.05;;
66179;SDS011;52986;44.028;20.466;2022-11-11T08:10:12;26.63;;;12.60;;
66179;SDS011;52986;44.028;20.466;2022-11-11T08:12:38;27.85;;;13.70;;
66179;SDS011;52986;44.028;20.466;2022-11-11T08:15:21;29.70;;;13.77;;
66179;SDS011;52986;44.028;20.466;2022-11-11T08:17:47;26.85;;;12.10;;
66179;SDS011;52986;44.028;20.466;2022-11-11T08:20:12;30.98;;;13.25;;
66179;SDS011;52986;44.028;20.466;2022-11-11T08:22:38;28.25;;;12.30;;
66179;SDS011;52986;44.028;20.466;2022-11-11T08:25:08;25.08;;;11.68;;
66179;SDS011;52986;44.028;20.466;2022-11-11T08:27:37;25.38;;;12.10;;
66179;SDS011;52986;44.028;20.466;2022-11-11T08:30:03;24.92;;;12.05;;
66179;SDS011;52986;44.028;20.466;2022-11-11T08:32:30;25.85;;;11.90;;
66179;SDS011;52986;44.028;20.466;2022-11-11T08:34:56;28.27;;;13.00;;
66179;SDS011;52986;44.028;20.466;2022-11-11T08:37:21;23.58;;;11.15;;
66179;SDS011;52986;44.028;20.466;2022-11-11T08:39:47;24.42;;;10.25;;
66179;SDS011;52986;44.028;20.466;2022-11-11T08:42:12;26.05;;;12.20;;
66179;SDS011;52986;44.028;20.466;2022-11-11T08:44:38;27.27;;;12.98;;
66179;SDS011;52986;44.028;20.466;2022-11-11T08:47:03;25.95;;;12.32;;
66179;SDS011;52986;44.028;20.466;2022-11-11T08:49:29;26.13;;;11.82;;
66179;SDS011;52986;44.028;20.466;2022-11-11T08:51:54;26.27;;;10.82;;
66179;SDS011;52986;44.028;20.466;2022-11-11T08:54:19;25.27;;;11.30;;
66179;SDS011;52986;44.028;20.466;2022-11-11T08:56:45;26.67;;;11.50;;
66179;SDS011;52986;44.028;20.466;2022-11-11T08:59:10;25.77;;;11.43;;
66179;SDS011;52986;44.028;20.466;2022-11-11T09:01:36;27.48;;;12.35;;
66179;SDS011;52986;44.028;20.466;2022-11-11T09:04:02;29.38;;;14.18;;
66179;SDS011;52986;44.028;20.466;2022-11-11T09:06:28;30.02;;;13.85;;
66179;SDS011;52986;44.028;20.466;2022-11-11T09:08:53;27.08;;;12.98;;
66179;SDS011;52986;44.028;20.466;2022-11-11T09:11:19;28.48;;;14.30;;
66179;SDS011;52986;44.028;20.466;2022-11-11T09:13:47;30.58;;;12.23;;
66179;SDS011;52986;44.028;20.466;2022-11-11T09:16:13;27.27;;;12.20;;
66179;SDS011;52986;44.028;20.466;2022-11-11T09:18:38;25.65;;;12.15;;
66179;SDS011;52986;44.028;20.466;2022-11-11T09:21:04;26.20;;;11.88;;
66179;SDS011;52986;44.028;20.466;2022-11-11T09:23:30;25.27;;;12.13;;
66179;SDS011;52986;44.028;20.466;2022-11-11T09:25:55;27.27;;;14.10;;
66179;SDS011;52986;44.028;20.466;2022-11-11T09:28:22;23.85;;;11.68;;
66179;SDS011;52986;44.028;20.466;2022-11-11T09:30:48;32.15;;;14.57;;
66179;SDS011;52986;44.028;20.466;2022-11-11T09:33:13;28.98;;;13.80;;
66179;SDS011;52986;44.028;20.466;2022-11-11T09:35:42;24.67;;;11.68;;
66179;SDS011;52986;44.028;20.466;2022-11-11T09:38:07;22.15;;;10.50;;
66179;SDS011;52986;44.028;20.466;2022-11-11T09:40:39;22.52;;;9.95;;
66179;SDS011;52986;44.028;20.466;2022-11-11T09:43:11;22.58;;;10.43;;
66179;SDS011;52986;44.028;20.466;2022-11-11T09:45:47;19.98;;;9.45;;
66179;SDS011;52986;44.028;20.466;2022-11-11T09:51:08;18.58;;;8.73;;
66179;SDS011;52986;44.028;20.466;2022-11-11T09:53:43;16.75;;;8.07;;
66179;SDS011;52986;44.028;20.466;2022-11-11T09:56:16;20.17;;;9.68;;
66179;SDS011;52986;44.028;20.466;2022-11-11T09:58:45;22.90;;;10.50;;
66179;SDS011;52986;44.028;20.466;2022-11-11T10:01:20;20.38;;;8.70;;
66179;SDS011;52986;44.028;20.466;2022-11-11T10:06:33;20.45;;;9.15;;
66179;SDS011;52986;44.028;20.466;2022-11-11T10:09:23;21.00;;;9.52;;
66179;SDS011;52986;44.028;20.466;2022-11-11T10:12:11;17.38;;;8.60;;
66179;SDS011;52986;44.028;20.466;2022-11-11T10:14:39;18.15;;;8.32;;
66179;SDS011;52986;44.028;20.466;2022-11-11T10:17:14;19.20;;;8.73;;
66179;SDS011;52986;44.028;20.466;2022-11-11T10:20:02;17.08;;;8.07;;
66179;SDS011;52986;44.028;20.466;2022-11-11T10:22:39;18.95;;;8.20;;
66179;SDS011;52986;44.028;20.466;2022-11-11T10:27:39;21.85;;;9.80;;
66179;SDS011;52986;44.028;20.466;2022-11-11T10:30:13;20.98;;;9.98;;
66179;SDS011;52986;44.028;20.466;2022-11-11T10:35:38;17.92;;;8.73;;
66179;SDS011;52986;44.028;20.466;2022-11-11T10:38:14;18.25;;;7.30;;
66179;SDS011;52986;44.028;20.466;2022-11-11T10:40:53;17.13;;;6.90;;
66179;SDS011;52986;44.028;20.466;2022-11-11T10:43:25;16.42;;;7.40;;
66179;SDS011;52986;44.028;20.466;2022-11-11T10:45:57;17.27;;;7.32;;
66179;SDS011;52986;44.028;20.466;2022-11-11T10:48:30;18.90;;;8.48;;
66179;SDS011;52986;44.028;20.466;2022-11-11T10:50:58;21.05;;;9.48;;
66179;SDS011;52986;44.028;20.466;2022-11-11T10:53:35;17.65;;;7.85;;
66179;SDS011;52986;44.028;20.466;2022-11-11T10:59:15;17.33;;;8.00;;
66179;SDS011;52986;44.028;20.466;2022-11-11T11:02:03;14.88;;;6.63;;
66179;SDS011;52986;44.028;20.466;2022-11-11T11:07:07;14.60;;;5.88;;
66179;SDS011;52986;44.028;20.466;2022-11-11T11:13:03;15.82;;;6.85;;
66179;SDS011;52986;44.028;20.466;2022-11-11T11:15:34;14.35;;;6.63;;
66179;SDS011;52986;44.028;20.466;2022-11-11T11:20:29;20.37;;;9.83;;
66179;SDS011;52986;44.028;20.466;2022-11-11T11:22:55;18.70;;;9.52;;
66179;SDS011;52986;44.028;20.466;2022-11-11T11:25:23;24.15;;;10.57;;
66179;SDS011;52986;44.028;20.466;2022-11-11T11:27:50;15.98;;;7.97;;
66179;SDS011;52986;44.028;20.466;2022-11-11T11:30:21;17.23;;;7.68;;
66179;SDS011;52986;44.028;20.466;2022-11-11T11:32:55;17.67;;;8.10;;
66179;SDS011;52986;44.028;20.466;2022-11-11T11:35:38;15.68;;;7.32;;
66179;SDS011;52986;44.028;20.466;2022-11-11T11:38:06;17.45;;;8.65;;
66179;SDS011;52986;44.028;20.466;2022-11-11T11:43:35;19.98;;;8.88;;
66179;SDS011;52986;44.028;20.466;2022-11-11T11:57:28;22.02;;;9.13;;
66179;SDS011;52986;44.028;20.466;2022-11-11T12:08:33;18.98;;;9.00;;
66179;SDS011;52986;44.028;20.466;2022-11-11T12:11:08;22.42;;;10.80;;
66179;SDS011;52986;44.028;20.466;2022-11-11T12:13:44;20.33;;;9.95;;
66179;SDS011;52986;44.028;20.466;2022-11-11T12:19:10;21.83;;;10.77;;
66179;SDS011;52986;44.028;20.466;2022-11-11T12:25:07;23.48;;;10.50;;
66179;SDS011;52986;44.028;20.466;2022-11-11T12:30:22;22.88;;;10.52;;
66179;SDS011;52986;44.028;20.466;2022-11-11T12:44:13;22.63;;;9.63;;
66179;SDS011;52986;44.028;20.466;2022-11-11T12:46:50;19.02;;;8.80;;
66179;SDS011;52986;44.028;20.466;2022-11-11T12:49:56;20.80;;;10.02;;
66179;SDS011;52986;44.028;20.466;2022-11-11T12:53:31;22.13;;;10.70;;
66179;SDS011;52986;44.028;20.466;2022-11-11T12:55:59;23.17;;;11.35;;
66179;SDS011;52986;44.028;20.466;2022-11-11T12:59:01;22.33;;;10.75;;
66179;SDS011;52986;44.028;20.466;2022-11-11T13:01:31;26.58;;;11.55;;
66179;SDS011;52986;44.028;20.466;2022-11-11T13:07:14;25.17;;;11.80;;
66179;SDS011;52986;44.028;20.466;2022-11-11T13:10:09;25.52;;;11.80;;
66179;SDS011;52986;44.028;20.466;2022-11-11T13:15:41;25.35;;;12.18;;
66179;SDS011;52986;44.028;20.466;2022-11-11T13:18:09;27.02;;;13.57;;
66179;SDS011;52986;44.028;20.466;2022-11-11T13:23:40;25.60;;;12.32;;
66179;SDS011;52986;44.028;20.466;2022-11-11T13:26:15;22.02;;;10.45;;
66179;SDS011;52986;44.028;20.466;2022-11-11T13:28:48;24.17;;;11.75;;
66179;SDS011;52986;44.028;20.466;2022-11-11T13:31:22;28.38;;;14.27;;
66179;SDS011;52986;44.028;20.466;2022-11-11T13:34:00;25.05;;;12.55;;
66179;SDS011;52986;44.028;20.466;2022-11-11T13:36:28;26.52;;;13.63;;
66179;SDS011;52986;44.028;20.466;2022-11-11T13:39:03;27.02;;;13.77;;
66179;SDS011;52986;44.028;20.466;2022-11-11T13:41:30;28.02;;;14.48;;
66179;SDS011;52986;44.028;20.466;2022-11-11T13:43:58;28.23;;;13.90;;
66179;SDS011;52986;44.028;20.466;2022-11-11T13:49:01;24.05;;;12.38;;
66179;SDS011;52986;44.028;20.466;2022-11-11T13:54:06;25.77;;;12.32;;
66179;SDS011;52986;44.028;20.466;2022-11-11T13:56:45;24.08;;;12.02;;
66179;SDS011;52986;44.028;20.466;2022-11-11T13:59:19;28.40;;;14.07;;
66179;SDS011;52986;44.028;20.466;2022-11-11T14:01:48;27.88;;;14.38;;
66179;SDS011;52986;44.028;20.466;2022-11-11T14:18:07;29.92;;;14.38;;
66179;SDS011;52986;44.028;20.466;2022-11-11T14:20:39;26.70;;;13.10;;
66179;SDS011;52986;44.028;20.466;2022-11-11T14:23:21;27.58;;;13.07;;
66179;SDS011;52986;44.028;20.466;2022-11-11T14:26:36;28.02;;;13.38;;
66179;SDS011;52986;44.028;20.466;2022-11-11T14:28:39;28.27;;;13.98;;
66179;SDS011;52986;44.028;20.466;2022-11-11T14:33:48;28.83;;;14.50;;
66179;SDS011;52986;44.028;20.466;2022-11-11T14:42:40;31.27;;;15.52;;
66179;SDS011;52986;44.028;20.466;2022-11-11T14:45:00;40.90;;;20.00;;
66179;SDS011;52986;44.028;20.466;2022-11-11T14:49:54;32.60;;;16.55;;
66179;SDS011;52986;44.028;20.466;2022-11-11T14:57:46;33.00;;;16.13;;
66179;SDS011;52986;44.028;20.466;2022-11-11T15:11:03;33.67;;;17.38;;
66179;SDS011;52986;44.028;20.466;2022-11-11T15:22:28;37.67;;;18.02;;
66179;SDS011;52986;44.028;20.466;2022-11-11T15:29:07;43.83;;;21.98;;
66179;SDS011;52986;44.028;20.466;2022-11-11T15:33:52;37.28;;;17.73;;
66179;SDS011;52986;44.028;20.466;2022-11-11T15:39:02;39.08;;;19.55;;
66179;SDS011;52986;44.028;20.466;2022-11-11T15:41:33;47.55;;;21.80;;
66179;SDS011;52986;44.028;20.466;2022-11-11T15:44:02;44.88;;;22.42;;
66179;SDS011;52986;44.028;20.466;2022-11-11T15:46:39;47.47;;;23.55;;
66179;SDS011;52986;44.028;20.466;2022-11-11T15:49:11;52.28;;;26.05;;
66179;SDS011;52986;44.028;20.466;2022-11-11T15:51:37;61.25;;;29.77;;
66179;SDS011;52986;44.028;20.466;2022-11-11T15:54:10;61.50;;;28.42;;
66179;SDS011;52986;44.028;20.466;2022-11-11T15:56:43;53.17;;;25.40;;
66179;SDS011;52986;44.028;20.466;2022-11-11T15:59:15;52.88;;;25.02;;
66179;SDS011;52986;44.028;20.466;2022-11-11T16:01:42;52.25;;;26.58;;
66179;SDS011;52986;44.028;20.466;2022-11-11T16:04:08;47.60;;;24.40;;
66179;SDS011;52986;44.028;20.466;2022-11-11T16:06:36;42.90;;;21.90;;
66179;SDS011;52986;44.028;20.466;2022-11-11T16:09:03;43.65;;;21.73;;
66179;SDS011;52986;44.028;20.466;2022-11-11T16:11:28;51.83;;;25.05;;
66179;SDS011;52986;44.028;20.466;2022-11-11T16:13:55;63.80;;;29.77;;
66179;SDS011;52986;44.028;20.466;2022-11-11T16:16:31;59.03;;;29.67;;
66179;SDS011;52986;44.028;20.466;2022-11-11T16:21:34;66.40;;;32.45;;
66179;SDS011;52986;44.028;20.466;2022-11-11T16:24:13;65.57;;;32.33;;
66179;SDS011;52986;44.028;20.466;2022-11-11T16:26:47;72.40;;;36.92;;
66179;SDS011;52986;44.028;20.466;2022-11-11T16:29:13;72.05;;;34.78;;
66179;SDS011;52986;44.028;20.466;2022-11-11T16:31:40;62.45;;;30.25;;
66179;SDS011;52986;44.028;20.466;2022-11-11T16:37:01;47.97;;;24.95;;
66179;SDS011;52986;44.028;20.466;2022-11-11T16:39:31;61.53;;;30.13;;
66179;SDS011;52986;44.028;20.466;2022-11-11T16:41:58;69.65;;;34.70;;
66179;SDS011;52986;44.028;20.466;2022-11-11T16:46:59;55.65;;;27.98;;
66179;SDS011;52986;44.028;20.466;2022-11-11T16:51:54;61.92;;;29.17;;
66179;SDS011;52986;44.028;20.466;2022-11-11T16:54:23;57.67;;;30.15;;
66179;SDS011;52986;44.028;20.466;2022-11-11T16:56:53;59.75;;;28.95;;
66179;SDS011;52986;44.028;20.466;2022-11-11T17:02:20;53.83;;;28.10;;
66179;SDS011;52986;44.028;20.466;2022-11-11T17:04:54;50.17;;;26.02;;
66179;SDS011;52986;44.028;20.466;2022-11-11T17:07:28;51.03;;;25.52;;
66179;SDS011;52986;44.028;20.466;2022-11-11T17:10:02;57.22;;;29.05;;
66179;SDS011;52986;44.028;20.466;2022-11-11T17:12:44;49.00;;;25.20;;
66179;SDS011;52986;44.028;20.466;2022-11-11T17:15:10;52.72;;;26.85;;
66179;SDS011;52986;44.028;20.466;2022-11-11T17:17:37;52.50;;;26.17;;